Weather History for Preston, MN

Change the Weather History Date:

Wednesday, January 9, 2013

  Actual Average (KRST) Record (KRST)
Temperature  
Mean Temperature 28 °F 16 °F  
Max Temperature 33 °F 23 °F 46 °F (2002)
Min Temperature 22 °F 8 °F -30 °F (1977)
Degree Days  
Heating Degree Days 38 49  
Month to date heating degree days 441  
Since 1 July heating degree days 3519  
Cooling Degree Days 0 0  
Month to date cooling degree days 0  
Year to date cooling degree days 0  
Moisture  
Dew Point 24 °F    
Average Humidity 81    
Maximum Humidity 93    
Minimum Humidity 68    
Precipitation  
Precipitation 0.00 in 0.03 in 0.20 in (1963)
Month to date precipitation 0.25  
Year to date precipitation 0.25  
Snow  
Snow 0.00 in 0.40 in 3.00 in (1943)
Month to date snowfall 3.1  
Since 1 July snowfall 22.5  
Snow Depth -    
Sea Level Pressure  
Sea Level Pressure 30.22 in    
Wind  
Wind Speed 13 mph (WSW)    
Max Wind Speed 21 mph    
Max Gust Speed 26 mph    
Visibility 10 miles    
Events      
T = Trace of Precipitation, MM = Missing Value Source: NWS Daily Summary

Daily Weather History Graph

Daily Weather History Graph

Search for Another Location

Airport:

Trip Planner

Search our weather history database for the weather conditions in past years. The results will help you decide how hot, cold, wet, or windy it might be!

Date:

Astronomy

Jan. 09, 2013 Rise Set
Actual Time 7:41 AM CST 4:50 PM CST
Civil Twilight 7:09 AM CST 5:23 PM CST
Nautical Twilight 6:33 AM CST 5:58 PM CST
Astronomical Twilight 5:58 AM CST 6:33 PM CST
Moon 5:21 AM CST (1/9) 2:52 PM CST (1/9)
Length of Visible Light 10h 13m
Length of Day
9h 09m
Waning Crescent, 6% of the Moon is Illuminated
Jan 9
Waning Crescent
Jan 11
New
Jan 18
First Quarter
Jan 26
Full
Feb 3
Last Quarter

Hourly Weather History & Observations

Time (CST) Temp. Windchill Dew Point Humidity Pressure Visibility Wind Dir Wind Speed Gust Speed Precip Events Conditions
12:09 AM 28.2 °F 17.2 °F 24.4 °F 86% 29.94 in 10.0 mi WSW 13.8 mph 19.6 mph N/A   Clear
12:30 AM 28.2 °F 17.7 °F 24.4 °F 86% 29.94 in 10.0 mi West 12.7 mph 18.4 mph N/A   Clear
1:10 AM 28.2 °F 18.3 °F 24.8 °F 87% 29.96 in 10.0 mi West 11.5 mph - N/A   Scattered Clouds
1:30 AM 28.4 °F 18.5 °F 25.2 °F 88% 29.96 in 10.0 mi West 11.5 mph - N/A   Scattered Clouds
1:50 AM 28.2 °F 16.8 °F 24.8 °F 87% 29.98 in 10.0 mi West 15.0 mph 19.6 mph N/A   Scattered Clouds
2:09 AM 28.4 °F 17.0 °F 24.8 °F 86% 29.99 in 10.0 mi West 15.0 mph - N/A   Scattered Clouds
2:30 AM 28.4 °F 18.0 °F 24.6 °F 86% 30.00 in 10.0 mi West 12.7 mph - N/A   Scattered Clouds
2:50 AM 28.8 °F 18.4 °F 25.0 °F 86% 30.01 in 10.0 mi West 12.7 mph - N/A   Mostly Cloudy
3:10 AM 30.0 °F 20.0 °F 25.7 °F 84% 30.01 in 10.0 mi West 12.7 mph - N/A   Overcast
3:29 AM 30.6 °F 21.8 °F 25.9 °F 83% 30.01 in 10.0 mi WSW 10.4 mph - N/A   Mostly Cloudy
3:50 AM 30.2 °F 20.2 °F 25.5 °F 83% 30.02 in 10.0 mi WSW 12.7 mph 18.4 mph N/A   Clear
4:10 AM 29.7 °F 21.3 °F 25.2 °F 83% 30.03 in 10.0 mi WSW 9.2 mph - N/A   Clear
4:30 AM 29.3 °F 18.2 °F 25.2 °F 85% 30.04 in 10.0 mi WSW 15.0 mph - N/A   Clear
4:49 AM 29.3 °F 17.7 °F 25.2 °F 85% 30.04 in 10.0 mi WSW 16.1 mph 21.9 mph N/A   Clear
5:10 AM 29.3 °F 17.3 °F 25.3 °F 85% 30.04 in 10.0 mi WSW 17.3 mph 23.0 mph N/A   Clear
5:29 AM 29.7 °F 18.2 °F 25.5 °F 85% 30.04 in 10.0 mi WSW 16.1 mph 21.9 mph N/A   Clear
5:50 AM 29.3 °F 17.3 °F 24.6 °F 83% 30.05 in 10.0 mi WSW 17.3 mph 24.2 mph N/A   Clear
6:10 AM 29.3 °F 16.6 °F 24.3 °F 81% 30.06 in 10.0 mi West 19.6 mph 26.5 mph N/A   Clear
6:30 AM 29.1 °F 17.1 °F 23.7 °F 80% 30.07 in 10.0 mi West 17.3 mph - N/A   Clear
6:50 AM 28.8 °F 16.2 °F 23.5 °F 81% 30.08 in 10.0 mi West 18.4 mph - N/A   Clear
7:10 AM 30.2 °F 18.5 °F 24.1 °F 78% 30.09 in 10.0 mi West 17.3 mph - N/A   Clear
7:30 AM 30.4 °F 18.7 °F 24.1 °F 77% 30.10 in 10.0 mi West 17.3 mph 25.3 mph N/A   Clear
7:50 AM 30.0 °F 18.7 °F 23.9 °F 78% 30.12 in 10.0 mi West 16.1 mph 23.0 mph N/A   Clear
8:10 AM 30.0 °F 18.7 °F 24.1 °F 79% 30.13 in 10.0 mi West 16.1 mph - N/A   Clear
8:30 AM 29.7 °F 18.6 °F 23.7 °F 79% 30.14 in 10.0 mi West 15.0 mph - N/A   Clear
8:50 AM 29.7 °F 18.2 °F 23.4 °F 77% 30.14 in 10.0 mi WNW 16.1 mph 21.9 mph N/A   Clear
9:09 AM 30.0 °F 18.7 °F 23.0 °F 75% 30.15 in 10.0 mi WNW 16.1 mph - N/A   Clear
9:30 AM 30.2 °F 19.3 °F 23.0 °F 75% 30.16 in 10.0 mi WNW 15.0 mph - N/A   Clear
9:49 AM 31.1 °F 20.5 °F 23.0 °F 72% 30.17 in 10.0 mi WNW 15.0 mph - N/A   Clear
10:10 AM 31.5 °F 19.8 °F 23.0 °F 71% 30.20 in 10.0 mi West 18.4 mph - N/A   Clear
10:29 AM 31.8 °F 21.4 °F 23.2 °F 70% 30.21 in 10.0 mi West 15.0 mph - N/A   Clear
11:09 AM 32.0 °F 20.8 °F 23.2 °F 70% 30.23 in 10.0 mi West 17.3 mph 21.9 mph N/A   Clear
11:30 AM 32.0 °F 20.5 °F 23.0 °F 69% 30.24 in 10.0 mi West 18.4 mph 24.2 mph N/A   Clear
11:50 AM 32.0 °F 20.8 °F 23.5 °F 71% 30.24 in 10.0 mi West 17.3 mph - N/A   Clear
12:10 PM 32.4 °F 21.3 °F 23.7 °F 70% 30.27 in 10.0 mi West 17.3 mph - N/A   Clear
12:30 PM 33.1 °F 23.0 °F 23.7 °F 68% 30.28 in 10.0 mi WSW 15.0 mph 23.0 mph N/A   Clear
12:49 PM 33.1 °F 21.2 °F 24.3 °F 70% 30.29 in 10.0 mi West 20.7 mph 26.5 mph N/A   Clear
1:10 PM 32.9 °F 21.6 °F 24.4 °F 71% 30.29 in 10.0 mi West 18.4 mph 26.5 mph N/A   Clear
1:30 PM 32.9 °F 21.6 °F 24.3 °F 71% 30.31 in 10.0 mi West 18.4 mph 24.2 mph N/A   Clear
1:50 PM 33.3 °F 21.8 °F 24.6 °F 71% 30.34 in 10.0 mi West 19.6 mph 24.2 mph N/A   Clear
2:10 PM 33.8 °F 22.8 °F 24.4 °F 69% 30.35 in 10.0 mi West 18.4 mph 25.3 mph N/A   Clear
2:30 PM 33.8 °F 23.5 °F 24.8 °F 70% 30.36 in 10.0 mi WSW 16.1 mph 26.5 mph N/A   Clear
2:49 PM 33.8 °F 23.5 °F 25.0 °F 70% 30.37 in 10.0 mi West 16.1 mph 21.9 mph N/A   Clear
3:10 PM 33.4 °F 23.9 °F 25.0 °F 71% 30.37 in 10.0 mi West 13.8 mph 23.0 mph N/A   Clear
3:30 PM 32.9 °F 24.1 °F 25.3 °F 74% 30.36 in 10.0 mi West 11.5 mph 18.4 mph N/A   Clear
3:50 PM 32.5 °F 23.7 °F 25.5 °F 75% 30.36 in 10.0 mi West 11.5 mph - N/A   Clear
4:09 PM 32.0 °F 23.6 °F 25.5 °F 77% 30.36 in 10.0 mi West 10.4 mph - N/A   Clear
4:30 PM 31.1 °F 23.7 °F 25.2 °F 79% 30.36 in 10.0 mi West 8.1 mph - N/A   Clear
4:49 PM 30.2 °F 23.4 °F 24.8 °F 80% 30.36 in 10.0 mi West 6.9 mph - N/A   Clear
5:09 PM 29.3 °F 25.6 °F 24.4 °F 82% 30.36 in 10.0 mi West 3.5 mph - N/A   Clear
5:30 PM 28.6 °F 23.5 °F 24.4 °F 84% 30.36 in 10.0 mi West 4.6 mph - N/A   Clear
5:50 PM 28.9 °F 23.9 °F 24.6 °F 84% 30.35 in 10.0 mi NW 4.6 mph - N/A   Clear
6:10 PM 27.5 °F - 23.9 °F 86% 30.36 in 10.0 mi Calm Calm - N/A   Clear
6:29 PM 27.3 °F - 23.7 °F 86% 30.35 in 10.0 mi Calm Calm - N/A   Clear
6:50 PM 28.0 °F - 24.3 °F 86% 30.35 in 10.0 mi Calm Calm - N/A   Clear
7:10 PM 27.1 °F 21.8 °F 22.8 °F 84% 30.37 in 10.0 mi South 4.6 mph - N/A   Clear
7:30 PM 25.7 °F 20.1 °F 23.0 °F 89% 30.36 in 10.0 mi South 4.6 mph - N/A   Clear
7:50 PM 25.7 °F 17.1 °F 23.2 °F 90% 30.37 in 10.0 mi SSW 8.1 mph - N/A   Clear
8:10 PM 24.6 °F 16.7 °F 22.1 °F 90% 30.37 in 10.0 mi SSW 6.9 mph - N/A   Clear
8:30 PM 23.2 °F 13.3 °F 21.0 °F 91% 30.37 in 10.0 mi South 9.2 mph - N/A   Clear
8:50 PM 24.8 °F 16.9 °F 22.5 °F 91% 30.36 in 10.0 mi South 6.9 mph - N/A   Clear
9:10 PM 23.5 °F 17.6 °F 21.2 °F 91% 30.35 in 10.0 mi South 4.6 mph - N/A   Clear
9:30 PM 23.2 °F 15.0 °F 21.2 °F 92% 30.34 in 10.0 mi South 6.9 mph - N/A   Clear
9:50 PM 22.8 °F 12.9 °F 20.7 °F 91% 30.35 in 10.0 mi South 9.2 mph - N/A   Clear
10:10 PM 22.6 °F 11.9 °F 20.8 °F 93% 30.35 in 10.0 mi South 10.4 mph - N/A   Clear
10:29 PM 23.7 °F 12.6 °F 21.4 °F 91% 30.36 in 10.0 mi South 11.5 mph - N/A   Clear
10:50 PM 26.1 °F 15.0 °F 23.4 °F 90% 30.37 in 10.0 mi South 12.7 mph - N/A   Clear
11:09 PM 27.7 °F 15.6 °F 23.7 °F 85% 30.37 in 10.0 mi SSW 16.1 mph - N/A   Clear
11:30 PM 27.9 °F 18.4 °F 23.9 °F 85% 30.38 in 10.0 mi South 10.4 mph - N/A   Clear
11:50 PM 27.3 °F 17.1 °F 23.5 °F 86% 30.37 in 10.0 mi South 11.5 mph - N/A   Clear